createdAt,value
2022-09-06T00:02:12.240Z,51.02
2022-09-06T00:04:45.998Z,50.72
2022-09-06T00:07:18.139Z,50.33
2022-09-06T00:09:50.068Z,51.48
2022-09-06T00:12:22.057Z,50.74
2022-09-06T00:14:56.151Z,51.64
2022-09-06T00:17:28.392Z,52.08
2022-09-06T00:20:02.745Z,51.55
2022-09-06T00:22:36.560Z,51.49
2022-09-06T00:25:12.563Z,51.59
2022-09-06T00:27:44.589Z,52.02
2022-09-06T00:30:24.271Z,51.57
2022-09-06T00:32:56.869Z,51.75
2022-09-06T00:35:31.053Z,52.13
2022-09-06T00:38:04.084Z,52.00
2022-09-06T00:40:38.620Z,52.03
2022-09-06T00:43:10.557Z,52.17
2022-09-06T00:45:42.736Z,52.38
2022-09-06T00:48:15.652Z,52.43
2022-09-06T00:50:54.639Z,52.67
2022-09-06T00:53:27.537Z,52.65
2022-09-06T00:56:00.203Z,52.65
2022-09-06T00:58:32.434Z,53.18
2022-09-06T01:01:06.281Z,52.86
2022-09-06T01:03:39.311Z,53.13
2022-09-06T01:06:25.600Z,53.34
2022-09-06T01:09:08.939Z,53.65
2022-09-06T01:12:00.363Z,52.94
2022-09-06T01:14:45.970Z,52.74
2022-09-06T01:17:28.785Z,52.84
2022-09-06T01:20:45.538Z,52.73
2022-09-06T01:23:44.969Z,53.50
2022-09-06T01:26:40.468Z,53.81
2022-09-06T01:29:20.988Z,53.01
2022-09-06T01:31:58.122Z,52.78
2022-09-06T01:34:38.689Z,53.28
2022-09-06T01:37:13.618Z,53.75
2022-09-06T01:39:45.635Z,54.16
2022-09-06T01:42:21.145Z,54.30
2022-09-06T01:44:59.181Z,54.11
2022-09-06T01:47:42.084Z,53.85
2022-09-06T01:50:39.283Z,54.34
2022-09-06T01:53:25.796Z,53.79
2022-09-06T01:56:05.919Z,54.51
2022-09-06T01:59:01.405Z,55.05
2022-09-06T02:01:47.690Z,54.90
2022-09-06T02:04:27.857Z,54.84
2022-09-06T02:07:04.453Z,54.98
2022-09-06T02:09:43.969Z,55.46
2022-09-06T02:12:20.694Z,55.30
2022-09-06T02:14:58.393Z,55.06
2022-09-06T02:17:35.751Z,55.24
2022-09-06T02:20:13.637Z,55.24
2022-09-06T02:22:51.000Z,55.74
2022-09-06T02:25:26.154Z,55.63
2022-09-06T02:27:58.690Z,55.48
2022-09-06T02:30:30.976Z,55.83
2022-09-06T02:33:12.272Z,55.75
2022-09-06T02:35:48.997Z,55.48
2022-09-06T02:38:23.924Z,55.70
2022-09-06T02:40:57.420Z,56.24
2022-09-06T02:43:30.279Z,56.61
2022-09-06T02:46:02.409Z,56.18
2022-09-06T02:48:35.212Z,56.70
2022-09-06T02:51:08.954Z,56.01
2022-09-06T02:53:41.733Z,56.20
2022-09-06T02:56:15.445Z,56.92
2022-09-06T02:58:50.061Z,55.99
2022-09-06T03:01:21.983Z,56.00
2022-09-06T03:03:54.894Z,56.48
2022-09-06T03:06:26.995Z,56.70
2022-09-06T03:09:00.316Z,56.45
2022-09-06T03:11:32.605Z,56.90
2022-09-06T03:14:05.019Z,56.95
2022-09-06T03:16:38.658Z,56.98
2022-09-06T03:19:10.753Z,57.24
2022-09-06T03:21:42.960Z,57.19
2022-09-06T03:24:15.893Z,58.01
2022-09-06T03:26:47.865Z,57.84
2022-09-06T03:29:19.954Z,58.18
2022-09-06T03:31:51.874Z,58.11
2022-09-06T03:34:25.589Z,58.59
2022-09-06T03:36:57.554Z,58.36
2022-09-06T03:39:29.930Z,58.40
2022-09-06T03:42:01.871Z,59.36
2022-09-06T03:44:34.986Z,58.85
2022-09-06T03:47:07.410Z,59.52
2022-09-06T03:49:40.471Z,59.08
2022-09-06T03:52:12.535Z,58.98
2022-09-06T03:54:44.733Z,58.17
2022-09-06T03:57:16.734Z,59.20
2022-09-06T03:59:48.915Z,58.74
2022-09-06T04:02:21.089Z,58.60
2022-09-06T04:04:55.672Z,58.77
2022-09-06T04:07:27.750Z,58.45
2022-09-06T04:09:59.947Z,57.86
2022-09-06T04:12:31.928Z,57.91
2022-09-06T04:15:04.765Z,57.74
2022-09-06T04:17:36.794Z,57.79
2022-09-06T04:20:17.239Z,58.13
2022-09-06T04:22:52.487Z,58.07
2022-09-06T04:25:24.717Z,57.88
2022-09-06T04:28:01.885Z,58.30
2022-09-06T04:30:36.513Z,58.15
2022-09-06T04:33:08.544Z,58.09
2022-09-06T04:35:40.689Z,58.49
2022-09-06T04:38:12.769Z,58.42
2022-09-06T04:40:47.261Z,58.32
2022-09-06T04:43:19.268Z,58.15
2022-09-06T04:45:51.612Z,58.41
2022-09-06T04:48:23.752Z,58.53
2022-09-06T04:50:57.823Z,58.57
2022-09-06T04:53:29.818Z,58.70
2022-09-06T04:56:01.914Z,58.22
2022-09-06T04:58:34.142Z,58.17
2022-09-06T05:01:08.660Z,58.62
2022-09-06T05:03:41.297Z,58.72
2022-09-06T05:06:16.218Z,58.63
2022-09-06T05:08:48.666Z,59.12
2022-09-06T05:11:29.246Z,58.62
2022-09-06T05:14:00.164Z,58.94
2022-09-06T05:16:32.309Z,58.81
2022-09-06T05:19:24.658Z,58.71
2022-09-06T05:21:57.623Z,58.41
2022-09-06T05:24:29.711Z,58.91
2022-09-06T05:27:04.044Z,58.79
2022-09-06T05:29:36.256Z,58.85
2022-09-06T05:32:10.241Z,59.15
2022-09-06T05:34:42.622Z,59.09
2022-09-06T05:37:14.784Z,59.02
2022-09-06T05:39:46.900Z,58.83
2022-09-06T05:42:19.610Z,58.83
2022-09-06T05:44:51.695Z,58.67
2022-09-06T05:47:24.236Z,58.45
2022-09-06T05:49:56.659Z,58.31
2022-09-06T05:52:28.724Z,58.33
2022-09-06T05:55:46.124Z,58.32
2022-09-06T05:58:18.363Z,58.14
2022-09-06T06:00:50.760Z,57.86
2022-09-06T06:03:24.579Z,57.69
2022-09-06T06:05:57.135Z,57.50
2022-09-06T06:08:29.932Z,57.43
2022-09-06T06:11:03.282Z,57.25
2022-09-06T06:13:39.604Z,57.20
2022-09-06T06:16:15.335Z,56.90
2022-09-06T06:18:51.776Z,56.75
2022-09-06T06:21:26.650Z,56.81
2022-09-06T06:24:01.482Z,56.73
2022-09-06T06:26:36.618Z,56.45
2022-09-06T06:29:09.751Z,56.30
2022-09-06T06:31:42.269Z,56.15
2022-09-06T06:34:15.150Z,56.00
2022-09-06T06:36:47.193Z,55.79
2022-09-06T06:39:19.287Z,55.35
2022-09-06T06:41:51.436Z,55.15
2022-09-06T06:44:23.545Z,55.30
2022-09-06T06:46:58.053Z,55.08
2022-09-06T06:49:30.985Z,54.49
2022-09-06T06:52:03.357Z,54.56
2022-09-06T06:54:37.497Z,54.81
2022-09-06T06:57:12.749Z,54.39
2022-09-06T06:59:44.813Z,53.75
2022-09-06T07:02:17.433Z,53.57
2022-09-06T07:04:49.670Z,53.14
2022-09-06T07:07:39.503Z,52.67
2022-09-06T07:10:37.538Z,53.46
2022-09-06T07:13:09.637Z,52.42
2022-09-06T07:15:43.691Z,52.10
2022-09-06T07:18:18.470Z,51.87
2022-09-06T07:26:40.183Z,50.64
2022-09-06T07:29:12.450Z,50.31
2022-09-06T07:34:37.906Z,49.32
2022-09-06T07:37:10.986Z,48.59
2022-09-06T07:39:43.164Z,49.15
2022-09-06T07:42:17.156Z,48.67
2022-09-06T07:44:49.110Z,47.41
2022-09-06T07:53:13.973Z,46.52
2022-09-06T07:55:49.711Z,46.56
2022-09-06T07:58:23.731Z,45.98
2022-09-06T08:00:55.691Z,46.23
2022-09-06T08:03:27.971Z,45.90
2022-09-06T08:11:31.227Z,44.65
2022-09-06T08:14:05.428Z,42.90
2022-09-06T08:16:39.482Z,44.19
2022-09-06T08:19:12.920Z,44.66
2022-09-06T08:21:45.177Z,44.15
2022-09-06T08:24:19.966Z,43.92
2022-09-06T08:26:52.783Z,44.35
2022-09-06T08:29:26.124Z,44.10
2022-09-06T08:32:00.976Z,44.83
2022-09-06T08:34:33.198Z,43.06
2022-09-06T08:37:05.260Z,43.23
2022-09-06T08:40:09.298Z,42.06
2022-09-06T08:42:44.137Z,40.70
2022-09-06T08:45:21.897Z,40.46
2022-09-06T08:47:54.150Z,42.21
2022-09-06T08:50:32.274Z,42.85
2022-09-06T08:53:23.308Z,40.37
2022-09-06T08:56:01.333Z,41.01
2022-09-06T09:02:46.259Z,36.78
2022-09-06T09:05:24.678Z,37.44
2022-09-06T09:08:23.518Z,36.52
2022-09-06T09:11:15.682Z,38.29
2022-09-06T09:13:56.212Z,38.71
2022-09-06T09:16:27.154Z,38.59
2022-09-06T09:18:59.217Z,36.02
2022-09-06T09:21:35.206Z,36.42
2022-09-06T09:24:11.516Z,36.40
2022-09-06T09:26:53.409Z,36.21
2022-09-06T09:29:28.857Z,37.28
2022-09-06T09:32:03.516Z,37.65
2022-09-06T09:34:39.933Z,37.19
2022-09-06T09:40:30.200Z,36.35
2022-09-06T09:43:16.175Z,35.36
2022-09-06T09:45:58.764Z,34.54
2022-09-06T09:48:30.736Z,35.79
2022-09-06T09:51:26.097Z,35.88
2022-09-06T09:54:09.301Z,34.94
2022-09-06T09:56:51.990Z,35.24
2022-09-06T09:59:27.785Z,35.65
2022-09-06T10:02:03.072Z,33.88
2022-09-06T10:04:46.109Z,35.05
2022-09-06T10:07:20.310Z,34.70
2022-09-06T10:09:59.193Z,32.53
2022-09-06T10:12:35.557Z,33.58
2022-09-06T10:15:12.414Z,33.56
2022-09-06T10:17:53.419Z,33.14
2022-09-06T10:20:41.230Z,33.44
2022-09-06T10:26:25.162Z,34.04
2022-09-06T10:29:05.410Z,34.26
2022-09-06T10:32:00.378Z,34.17
2022-09-06T10:35:27.614Z,33.94
2022-09-06T10:38:18.069Z,33.23
2022-09-06T10:41:05.454Z,33.77
2022-09-06T10:43:47.251Z,33.89
2022-09-06T10:47:10.274Z,33.37
2022-09-06T10:49:50.528Z,32.71
2022-09-06T10:52:29.616Z,33.51
2022-09-06T10:55:05.601Z,32.92
2022-09-06T11:00:39.033Z,32.70
2022-09-06T11:06:13.999Z,32.82
2022-09-06T11:08:53.586Z,32.70
2022-09-06T11:11:35.719Z,32.85
2022-09-06T11:14:13.798Z,32.48
2022-09-06T11:16:51.989Z,32.57
2022-09-06T11:19:29.387Z,32.46
2022-09-06T11:22:21.903Z,31.89
2022-09-06T11:25:17.666Z,31.35
2022-09-06T11:27:57.303Z,31.99
2022-09-06T11:30:38.200Z,32.08
2022-09-06T11:33:21.010Z,31.78
2022-09-06T11:35:54.600Z,31.72
2022-09-06T11:38:29.790Z,32.02
2022-09-06T11:41:07.244Z,31.96
2022-09-06T11:43:50.953Z,31.33
2022-09-06T11:46:58.428Z,31.81
2022-09-06T11:49:41.945Z,31.74
2022-09-06T11:52:47.605Z,31.36
2022-09-06T11:55:22.957Z,31.15
2022-09-06T11:57:59.250Z,30.65
2022-09-06T12:00:32.705Z,30.85
2022-09-06T12:06:19.224Z,30.30
2022-09-06T12:08:52.789Z,30.47
2022-09-06T12:11:30.878Z,31.16
2022-09-06T12:14:05.886Z,30.79
2022-09-06T12:17:11.560Z,31.03
2022-09-06T12:19:47.826Z,30.17
2022-09-06T12:22:56.360Z,30.07
2022-09-06T12:25:59.502Z,30.23
2022-09-06T12:28:42.000Z,30.67
2022-09-06T12:31:31.173Z,29.99
2022-09-06T12:34:10.688Z,30.27
2022-09-06T12:36:57.405Z,29.48
2022-09-06T12:39:29.551Z,29.20
2022-09-06T12:42:04.178Z,29.00
2022-09-06T12:44:38.465Z,30.19
2022-09-06T12:47:16.101Z,30.59
2022-09-06T12:49:47.860Z,30.49
2022-09-06T12:52:22.576Z,30.66
2022-09-06T12:54:54.403Z,30.01
2022-09-06T12:57:27.269Z,30.46
2022-09-06T13:00:00.151Z,29.87
2022-09-06T13:02:41.381Z,29.59
2022-09-06T13:05:14.776Z,30.24
2022-09-06T13:07:49.909Z,30.29
2022-09-06T13:10:25.622Z,29.78
2022-09-06T13:13:00.682Z,30.08
2022-09-06T13:15:33.009Z,30.42
2022-09-06T13:18:27.824Z,30.49
2022-09-06T13:21:06.071Z,30.26
2022-09-06T13:23:45.876Z,30.83
2022-09-06T13:26:35.747Z,31.17
2022-09-06T13:29:22.905Z,30.88
2022-09-06T13:31:57.088Z,30.39
2022-09-06T13:34:32.189Z,30.65
2022-09-06T13:37:07.195Z,30.77
2022-09-06T13:39:40.537Z,31.04
2022-09-06T13:42:24.468Z,31.03
2022-09-06T13:45:01.295Z,30.55
2022-09-06T13:47:33.820Z,31.14
2022-09-06T13:50:14.902Z,30.87
2022-09-06T13:52:48.472Z,31.03
2022-09-06T13:55:31.938Z,30.75
2022-09-06T13:58:03.950Z,30.27
2022-09-06T14:00:38.531Z,30.55
2022-09-06T14:03:13.822Z,30.53
2022-09-06T14:05:45.599Z,30.48
2022-09-06T14:08:17.741Z,30.63
2022-09-06T14:10:50.553Z,30.20
2022-09-06T14:13:24.060Z,30.51
2022-09-06T14:15:55.796Z,31.02
2022-09-06T14:18:27.707Z,31.02
2022-09-06T14:21:00.467Z,30.91
2022-09-06T14:23:32.317Z,30.77
2022-09-06T14:26:06.292Z,30.73
2022-09-06T14:28:38.318Z,30.96
2022-09-06T14:31:18.910Z,30.83
2022-09-06T14:33:51.023Z,30.70
2022-09-06T14:36:24.401Z,30.34
2022-09-06T14:38:57.769Z,30.64
2022-09-06T14:41:29.916Z,30.88
2022-09-06T14:44:01.842Z,30.75
2022-09-06T14:46:33.492Z,30.96
2022-09-06T14:49:08.339Z,30.98
2022-09-06T14:51:40.867Z,30.60
2022-09-06T14:54:14.689Z,30.66
2022-09-06T14:56:46.800Z,31.22
2022-09-06T14:59:18.443Z,31.25
2022-09-06T15:01:50.167Z,31.08
2022-09-06T15:04:26.438Z,30.92
2022-09-06T15:06:58.850Z,30.59
2022-09-06T15:09:36.312Z,30.59
2022-09-06T15:12:08.495Z,30.57
2022-09-06T15:14:41.193Z,30.91
2022-09-06T15:17:14.039Z,31.10
2022-09-06T15:19:45.969Z,31.13
2022-09-06T15:22:19.051Z,31.13
2022-09-06T15:24:51.598Z,31.01
2022-09-06T15:27:23.404Z,31.12
2022-09-06T15:29:54.977Z,30.77
2022-09-06T15:32:26.809Z,31.05
2022-09-06T15:35:02.451Z,31.15
2022-09-06T15:37:36.081Z,31.00
2022-09-06T15:40:10.481Z,31.21
2022-09-06T15:42:43.462Z,31.51
2022-09-06T15:45:15.281Z,31.48
2022-09-06T15:47:46.953Z,31.47
2022-09-06T15:50:29.243Z,31.62
2022-09-06T15:53:06.285Z,31.74
2022-09-06T15:55:57.019Z,31.58
2022-09-06T15:58:29.649Z,31.59
2022-09-06T16:01:06.367Z,31.77
2022-09-06T16:03:40.797Z,31.83
2022-09-06T16:06:30.119Z,31.86
2022-09-06T16:09:03.672Z,31.81
2022-09-06T16:11:36.931Z,32.12
2022-09-06T16:14:11.626Z,32.35
2022-09-06T16:16:43.941Z,32.49
2022-09-06T16:19:16.167Z,32.43
2022-09-06T16:21:47.769Z,32.62
2022-09-06T16:24:19.898Z,32.67
2022-09-06T16:26:51.665Z,32.52
2022-09-06T16:29:23.362Z,32.57
2022-09-06T16:31:59.774Z,32.63
2022-09-06T16:34:31.682Z,32.90
2022-09-06T16:37:07.873Z,33.02
2022-09-06T16:39:39.670Z,32.89
2022-09-06T16:42:12.644Z,33.02
2022-09-06T16:44:44.341Z,33.19
2022-09-06T16:47:16.770Z,33.15
2022-09-06T16:49:49.059Z,33.46
2022-09-06T16:52:20.696Z,33.56
2022-09-06T16:54:52.348Z,33.63
2022-09-06T16:57:24.951Z,33.58
2022-09-06T16:59:56.625Z,33.69
2022-09-06T17:02:28.482Z,33.95
2022-09-06T17:05:00.395Z,34.05
2022-09-06T17:07:33.048Z,34.03
2022-09-06T17:10:11.615Z,34.30
2022-09-06T17:12:43.243Z,34.39
2022-09-06T17:15:15.062Z,34.52
2022-09-06T17:17:47.693Z,34.69
2022-09-06T17:20:23.971Z,34.82
2022-09-06T17:22:55.977Z,34.99
2022-09-06T17:25:28.197Z,35.05
2022-09-06T17:28:00.380Z,35.30
2022-09-06T17:30:34.897Z,35.54
2022-09-06T17:33:07.013Z,35.62
2022-09-06T17:35:38.766Z,35.65
2022-09-06T17:38:10.590Z,35.77
2022-09-06T17:40:44.237Z,35.88
2022-09-06T17:43:15.826Z,36.05
2022-09-06T17:45:47.626Z,36.20
2022-09-06T17:48:19.259Z,35.90
2022-09-06T17:50:51.851Z,35.99
2022-09-06T17:53:23.657Z,36.26
2022-09-06T17:55:55.525Z,36.29
2022-09-06T17:58:27.248Z,36.43
2022-09-06T18:01:03.281Z,36.43
2022-09-06T18:03:35.470Z,36.65
2022-09-06T18:06:10.024Z,36.70
2022-09-06T18:08:43.303Z,36.83
2022-09-06T18:11:17.135Z,36.74
2022-09-06T18:13:55.020Z,36.88
2022-09-06T18:16:27.368Z,37.15
2022-09-06T18:19:01.225Z,37.24
2022-09-06T18:21:34.580Z,37.51
2022-09-06T18:24:09.302Z,37.54
2022-09-06T18:26:41.620Z,37.62
2022-09-06T18:29:16.602Z,37.94
2022-09-06T18:31:49.471Z,38.10
2022-09-06T18:34:21.711Z,37.96
2022-09-06T18:36:53.424Z,37.99
2022-09-06T18:39:25.258Z,38.10
2022-09-06T18:42:07.203Z,38.46
2022-09-06T18:44:40.664Z,38.57
2022-09-06T18:47:13.362Z,38.64
2022-09-06T18:49:45.091Z,38.64
2022-09-06T18:52:18.179Z,38.77
2022-09-06T18:54:50.237Z,38.81
2022-09-06T18:57:22.100Z,38.96
2022-09-06T18:59:53.772Z,39.18
2022-09-06T19:02:27.790Z,39.53
2022-09-06T19:04:59.597Z,39.54
2022-09-06T19:07:31.299Z,39.62
2022-09-06T19:10:03.169Z,39.80
2022-09-06T19:12:35.463Z,39.89
2022-09-06T19:15:10.920Z,39.74
2022-09-06T19:17:43.126Z,39.81
2022-09-06T19:20:14.802Z,40.03
2022-09-06T19:22:47.155Z,40.23
2022-09-06T19:25:19.124Z,40.34
2022-09-06T19:27:50.997Z,40.42
2022-09-06T19:30:22.656Z,40.80
2022-09-06T19:32:54.584Z,40.75
2022-09-06T19:35:26.362Z,41.13
2022-09-06T19:37:58.079Z,41.09
2022-09-06T19:40:29.735Z,41.00
2022-09-06T19:43:01.440Z,41.01
2022-09-06T19:45:37.061Z,40.99
2022-09-06T19:48:09.516Z,41.37
2022-09-06T19:50:41.513Z,41.30
2022-09-06T19:53:13.228Z,41.43
2022-09-06T19:55:44.885Z,41.31
2022-09-06T19:58:16.637Z,41.49
2022-09-06T20:00:48.344Z,41.71
2022-09-06T20:03:20.134Z,41.74
2022-09-06T20:05:59.071Z,41.61
2022-09-06T20:08:30.956Z,41.83
2022-09-06T20:11:04.016Z,42.08
2022-09-06T20:13:38.401Z,41.85
2022-09-06T20:16:11.730Z,42.36
2022-09-06T20:18:43.705Z,42.45
2022-09-06T20:21:17.772Z,42.25
2022-09-06T20:23:53.650Z,42.33
2022-09-06T20:26:26.918Z,42.25
2022-09-06T20:29:00.024Z,42.70
2022-09-06T20:31:33.390Z,42.74
2022-09-06T20:34:06.510Z,42.56
2022-09-06T20:36:38.540Z,42.48
2022-09-06T20:39:10.633Z,42.85
2022-09-06T20:41:42.891Z,42.75
2022-09-06T20:44:17.848Z,42.82
2022-09-06T20:46:49.508Z,43.18
2022-09-06T20:49:23.085Z,43.32
2022-09-06T20:51:54.643Z,43.39
2022-09-06T20:54:26.367Z,43.56
2022-09-06T20:56:59.230Z,43.87
2022-09-06T20:59:31.120Z,43.63
2022-09-06T21:02:02.968Z,44.13
2022-09-06T21:04:34.655Z,44.43
2022-09-06T21:07:06.282Z,44.00
2022-09-06T21:09:38.000Z,44.09
2022-09-06T21:12:09.990Z,44.22
2022-09-06T21:14:41.634Z,44.36
2022-09-06T21:17:13.305Z,44.31
2022-09-06T21:19:44.918Z,44.14
2022-09-06T21:22:18.181Z,44.47
2022-09-06T21:24:50.834Z,44.19
2022-09-06T21:27:22.443Z,44.33
2022-09-06T21:29:54.125Z,44.39
2022-09-06T21:32:26.741Z,44.49
2022-09-06T21:34:59.428Z,44.43
2022-09-06T21:37:31.143Z,44.41
2022-09-06T21:40:03.090Z,44.57
2022-09-06T21:42:40.669Z,44.47
2022-09-06T21:45:14.425Z,44.19
2022-09-06T21:47:46.038Z,44.34
2022-09-06T21:50:23.581Z,44.47
2022-09-06T21:52:56.282Z,44.34
2022-09-06T21:55:27.957Z,44.57
2022-09-06T21:57:59.594Z,44.38
2022-09-06T22:00:37.489Z,44.84
2022-09-06T22:03:10.030Z,44.91
2022-09-06T22:05:41.901Z,44.65
2022-09-06T22:08:13.748Z,44.73
2022-09-06T22:10:48.067Z,44.72
2022-09-06T22:13:21.113Z,44.90
2022-09-06T22:15:53.071Z,45.08
2022-09-06T22:18:25.117Z,44.96
2022-09-06T22:21:03.861Z,44.72
2022-09-06T22:23:35.900Z,44.91
2022-09-06T22:26:10.277Z,45.23
2022-09-06T22:28:42.464Z,45.11
2022-09-06T22:31:16.111Z,45.21
2022-09-06T22:33:47.964Z,45.43
2022-09-06T22:36:20.235Z,45.32
2022-09-06T22:38:53.282Z,45.37
2022-09-06T22:41:27.509Z,45.41
2022-09-06T22:44:00.556Z,45.54
2022-09-06T22:46:33.176Z,45.73
2022-09-06T22:49:05.568Z,45.69
2022-09-06T22:51:38.374Z,45.94
2022-09-06T22:54:10.379Z,46.57
2022-09-06T22:56:42.880Z,46.40
2022-09-06T22:59:14.710Z,46.20
2022-09-06T23:01:48.238Z,46.43
2022-09-06T23:04:20.352Z,46.24
2022-09-06T23:06:52.305Z,46.40
2022-09-06T23:09:24.165Z,46.75
2022-09-06T23:11:57.083Z,46.79
2022-09-06T23:14:30.370Z,46.57
2022-09-06T23:17:03.162Z,46.84
2022-09-06T23:19:35.053Z,47.18
2022-09-06T23:22:09.548Z,47.30
2022-09-06T23:24:41.416Z,47.25
2022-09-06T23:27:14.603Z,47.56
2022-09-06T23:29:46.429Z,47.67
2022-09-06T23:32:20.764Z,47.68
2022-09-06T23:34:53.543Z,47.89
2022-09-06T23:37:25.502Z,47.85
2022-09-06T23:39:57.449Z,48.25
2022-09-06T23:42:31.180Z,48.49
2022-09-06T23:45:03.569Z,48.27
2022-09-06T23:47:35.454Z,48.72
2022-09-06T23:50:08.326Z,48.54
2022-09-06T23:52:42.787Z,48.56
2022-09-06T23:55:14.812Z,48.70
2022-09-06T23:57:46.695Z,49.25
